Time;durP1;ratioP1;P1;durP2;ratioP2;P2;SDS_P1;SDS_P2;PMS_P1;PMS_P2;Temp;Humidity;BMP_temperature;BMP_pressure;BME280_temperature;BME280_humidity;BME280_pressure;Samples;Min_cycle;Max_cycle;Signal;HPM_P1;HPM_P2
2022/05/06 00:02:02;;;;;;;71.47;42.88;;;11.10;87.00;;;;;;5096697;28;20040;-81
2022/05/06 00:04:28;;;;;;;76.05;43.05;;;11.10;87.00;;;;;;5096569;28;20487;-78
2022/05/06 00:06:57;;;;;;;71.25;41.28;;;11.10;87.40;;;;;;5096848;28;20100;-81
2022/05/06 00:09:24;;;;;;;80.18;44.20;;;11.10;87.30;;;;;;5096418;28;20079;-82
2022/05/06 00:11:51;;;;;;;74.45;43.60;;;11.20;87.80;;;;;;5096510;28;20499;-77
2022/05/06 00:14:20;;;;;;;78.70;44.17;;;11.20;87.60;;;;;;5096330;28;20061;-84
2022/05/06 00:16:46;;;;;;;78.95;44.53;;;11.20;87.50;;;;;;5113397;28;20123;-80
2022/05/06 00:19:12;;;;;;;82.60;45.28;;;11.30;87.70;;;;;;5096414;28;20067;-79
2022/05/06 00:21:38;;;;;;;73.63;42.80;;;11.30;87.90;;;;;;5096333;28;20039;-81
2022/05/06 00:24:06;;;;;;;86.45;45.67;;;11.40;87.80;;;;;;5096662;28;20050;-79
2022/05/06 00:26:32;;;;;;;78.45;44.53;;;11.30;88.00;;;;;;5096276;28;20039;-79
2022/05/06 00:29:00;;;;;;;73.65;42.28;;;11.40;88.50;;;;;;5096238;28;20032;-80
2022/05/06 00:31:26;;;;;;;86.25;46.40;;;11.40;88.30;;;;;;5079737;28;20039;-77
2022/05/06 00:33:51;;;;;;;83.70;44.72;;;11.50;88.40;;;;;;5113034;28;20125;-78
2022/05/06 00:36:17;;;;;;;77.68;42.78;;;11.50;88.50;;;;;;5115492;27;20054;-82
2022/05/06 00:38:43;;;;;;;82.78;43.55;;;11.50;88.50;;;;;;5082614;27;20043;-77
2022/05/06 00:41:09;;;;;;;75.60;44.05;;;11.50;88.60;;;;;;5116290;27;20107;-79
2022/05/06 00:43:39;;;;;;;82.50;44.72;;;11.50;88.70;;;;;;5082661;27;20039;-78
2022/05/06 00:46:11;;;;;;;75.00;42.63;;;11.50;88.80;;;;;;5116281;27;20491;-78
2022/05/06 00:48:38;;;;;;;79.97;42.97;;;11.50;88.90;;;;;;5116505;27;20395;-80
2022/05/06 00:51:06;;;;;;;86.70;47.20;;;11.60;89.00;;;;;;5116124;27;20194;-80
2022/05/06 00:53:36;;;;;;;78.72;43.15;;;11.50;88.90;;;;;;5083457;27;20049;-79
2022/05/06 00:56:03;;;;;;;71.60;43.85;;;11.50;89.00;;;;;;5115277;27;20031;-80
2022/05/06 00:58:31;;;;;;;81.68;44.85;;;11.60;89.30;;;;;;5116038;27;20031;-81
2022/05/06 01:00:57;;;;;;;80.78;45.22;;;11.50;89.20;;;;;;5115829;27;20121;-80
2022/05/06 01:03:23;;;;;;;81.60;44.63;;;11.50;89.70;;;;;;5098847;27;20081;-82
2022/05/06 01:05:49;;;;;;;79.47;45.33;;;11.50;89.60;;;;;;5099267;27;20092;-78
2022/05/06 01:08:16;;;;;;;81.75;45.50;;;11.60;89.40;;;;;;5099309;27;20368;-79
2022/05/06 01:10:43;;;;;;;69.07;40.17;;;11.50;89.30;;;;;;5099156;27;20038;-80
2022/05/06 01:13:09;;;;;;;79.65;43.63;;;11.50;89.50;;;;;;5098735;27;20072;-79
2022/05/06 01:15:36;;;;;;;68.75;40.35;;;11.50;89.80;;;;;;5116089;27;20047;-79
2022/05/06 01:18:02;;;;;;;76.65;43.65;;;11.50;89.70;;;;;;5115788;27;20035;-80
2022/05/06 01:20:28;;;;;;;71.32;39.65;;;11.50;89.70;;;;;;5115615;28;20035;-78
2022/05/06 01:22:58;;;;;;;75.40;41.75;;;11.50;89.90;;;;;;5115707;27;20380;-81
2022/05/06 01:25:25;;;;;;;76.18;42.17;;;11.50;90.00;;;;;;5115932;28;20129;-81
2022/05/06 01:28:00;;;;;;;69.07;40.15;;;11.50;89.90;;;;;;5115539;27;20099;-77
2022/05/06 01:30:29;;;;;;;72.25;40.42;;;11.50;90.20;;;;;;5115796;28;20127;-77
2022/05/06 01:32:56;;;;;;;77.45;42.30;;;11.50;90.00;;;;;;5115367;27;20372;-80
2022/05/06 01:35:24;;;;;;;72.22;41.22;;;11.50;90.10;;;;;;5098626;28;20039;-78
2022/05/06 01:37:53;;;;;;;76.03;41.45;;;11.50;90.00;;;;;;5098776;28;20051;-77
2022/05/06 01:40:21;;;;;;;60.00;35.45;;;11.40;90.20;;;;;;5115712;28;20431;-80
2022/05/06 01:42:49;;;;;;;58.30;36.38;;;11.50;90.40;;;;;;5115700;28;20043;-77
2022/05/06 01:45:20;;;;;;;66.18;38.35;;;11.50;90.20;;;;;;5115701;28;20449;-81
2022/05/06 01:47:51;;;;;;;63.22;35.63;;;11.50;90.20;;;;;;5081910;28;20235;-83
2022/05/06 01:50:21;;;;;;;68.43;39.78;;;11.50;90.30;;;;;;5098421;28;20043;-78
2022/05/06 01:52:52;;;;;;;67.90;38.30;;;11.50;90.20;;;;;;5115317;28;20078;-79
2022/05/06 01:55:18;;;;;;;68.38;40.17;;;11.50;90.20;;;;;;5115312;28;20031;-80
2022/05/06 01:57:44;;;;;;;62.08;38.92;;;11.40;90.40;;;;;;5115258;28;20054;-78
2022/05/06 02:00:13;;;;;;;70.13;39.88;;;11.40;90.30;;;;;;5115443;28;20114;-80
2022/05/06 02:02:39;;;;;;;76.68;40.75;;;11.40;90.30;;;;;;5115514;28;20167;-82
2022/05/06 02:05:17;;;;;;;70.28;40.97;;;11.40;90.30;;;;;;5115282;28;20055;-78
2022/05/06 02:07:51;;;;;;;70.40;41.03;;;11.40;90.60;;;;;;5118877;27;20049;-83
2022/05/06 02:10:17;;;;;;;76.28;41.97;;;11.40;90.50;;;;;;5119267;27;20091;-80
2022/05/06 02:12:47;;;;;;;77.75;43.45;;;11.30;90.50;;;;;;5119101;27;20482;-83
2022/05/06 02:15:14;;;;;;;80.07;43.47;;;11.30;90.60;;;;;;5119500;27;20057;-76
2022/05/06 02:17:41;;;;;;;110.55;46.60;;;11.30;90.90;;;;;;5119188;27;20039;-80
2022/05/06 02:20:09;;;;;;;97.97;46.88;;;11.20;91.00;;;;;;5102017;27;20039;-78
2022/05/06 02:22:42;;;;;;;121.60;48.28;;;11.20;91.20;;;;;;5102201;27;20395;-78
2022/05/06 02:25:09;;;;;;;102.75;47.50;;;11.20;91.10;;;;;;5119327;27;20118;-78
2022/05/06 02:27:38;;;;;;;95.45;46.28;;;11.20;91.30;;;;;;5102396;27;20447;-79
2022/05/06 02:35:34;;;;;;;;;;;11.20;91.50;;;;;;5119489;27;20402;-80
2022/05/06 02:38:00;;;;;;;125.25;43.47;;;11.10;91.90;;;;;;5084642;27;19923;-78
2022/05/06 02:40:27;;;;;;;175.80;47.80;;;11.10;92.10;;;;;;5118585;27;20042;-81
2022/05/06 02:42:53;;;;;;;108.18;46.25;;;11.10;92.10;;;;;;5118667;27;20108;-79
2022/05/06 02:45:18;;;;;;;150.20;52.70;;;11.00;91.70;;;;;;5118530;27;20039;-82
2022/05/06 02:47:45;;;;;;;117.63;46.08;;;11.00;91.80;;;;;;5101763;27;20043;-80
2022/05/06 02:50:11;;;;;;;199.75;47.97;;;11.00;91.80;;;;;;5118443;27;20487;-81
2022/05/06 02:52:37;;;;;;;173.93;47.25;;;11.10;92.10;;;;;;5101643;27;20039;-78
2022/05/06 02:55:03;;;;;;;196.18;48.38;;;11.00;91.80;;;;;;5118643;27;20383;-79
2022/05/06 02:57:29;;;;;;;170.65;40.05;;;11.00;92.10;;;;;;5118322;27;20039;-81
2022/05/06 02:59:55;;;;;;;362.00;57.83;;;10.90;92.00;;;;;;5118265;27;20042;-80
2022/05/06 03:02:20;;;;;;;295.38;62.45;;;10.90;92.30;;;;;;5101246;27;20031;-79
2022/05/06 03:04:46;;;;;;;220.95;53.40;;;10.80;92.30;;;;;;5101271;27;20394;-81
2022/05/06 03:07:12;;;;;;;251.70;55.22;;;10.80;92.50;;;;;;5101201;27;20032;-79
2022/05/06 03:09:41;;;;;;;169.10;41.65;;;10.80;92.70;;;;;;5084042;27;20047;-81
2022/05/06 03:12:10;;;;;;;323.05;51.20;;;10.80;92.60;;;;;;5118298;27;20399;-83
2022/05/06 03:14:36;;;;;;;141.68;42.55;;;10.80;92.50;;;;;;5117838;27;20483;-82
2022/05/06 03:17:02;;;;;;;322.33;54.10;;;10.80;92.50;;;;;;5100879;27;20046;-79
2022/05/06 03:19:27;;;;;;;246.40;45.67;;;10.70;92.50;;;;;;5100035;27;20122;-80
2022/05/06 03:21:57;;;;;;;193.15;40.05;;;10.70;92.80;;;;;;5100910;27;20321;-76
2022/05/06 03:24:23;;;;;;;251.68;45.40;;;10.70;92.80;;;;;;5117900;27;20042;-83
2022/05/06 03:26:48;;;;;;;168.90;39.38;;;10.60;92.80;;;;;;5117751;27;20411;-80
2022/05/06 03:29:17;;;;;;;150.27;38.53;;;10.50;92.80;;;;;;5117666;27;20130;-79
2022/05/06 03:31:43;;;;;;;211.95;43.95;;;10.50;92.80;;;;;;5117724;27;20039;-81
2022/05/06 03:34:09;;;;;;;292.55;45.70;;;10.50;93.10;;;;;;5100625;27;20043;-81
2022/05/06 03:36:35;;;;;;;191.13;40.80;;;10.60;92.90;;;;;;5100749;27;20433;-81
2022/05/06 03:39:04;;;;;;;182.18;38.03;;;10.60;92.90;;;;;;5117809;27;20046;-78
2022/05/06 03:41:30;;;;;;;204.93;37.95;;;10.50;93.00;;;;;;5083655;27;20122;-81
2022/05/06 03:43:55;;;;;;;86.65;30.00;;;10.50;93.70;;;;;;5100364;27;20475;-79
2022/05/06 03:46:21;;;;;;;90.82;29.45;;;10.50;94.10;;;;;;5083628;27;20051;-80
2022/05/06 03:48:47;;;;;;;106.38;25.15;;;10.50;93.50;;;;;;5100499;27;20115;-77
2022/05/06 03:51:23;;;;;;;68.00;23.98;;;10.50;93.40;;;;;;5117372;27;20043;-79
2022/05/06 03:53:53;;;;;;;60.17;22.83;;;10.40;93.30;;;;;;5100311;27;20042;-79
2022/05/06 03:56:22;;;;;;;73.85;24.70;;;10.40;93.30;;;;;;5117398;27;20170;-80
2022/05/06 03:58:48;;;;;;;68.25;22.33;;;10.40;93.30;;;;;;5100341;27;20039;-84
2022/05/06 04:01:16;;;;;;;96.70;20.63;;;10.30;93.40;;;;;;5117068;27;20506;-82
2022/05/06 04:03:41;;;;;;;60.17;16.75;;;10.30;93.80;;;;;;5100259;27;20042;-81
2022/05/06 04:06:07;;;;;;;38.97;16.00;;;10.20;93.70;;;;;;5116844;27;20035;-80
2022/05/06 04:08:33;;;;;;;27.80;14.43;;;10.20;93.50;;;;;;5117110;27;20038;-82
2022/05/06 04:11:00;;;;;;;32.83;14.25;;;10.10;93.90;;;;;;5099667;27;20046;-80
2022/05/06 04:13:26;;;;;;;47.67;16.55;;;10.20;93.60;;;;;;5116753;27;20039;-80
2022/05/06 04:15:52;;;;;;;42.50;17.05;;;10.20;93.50;;;;;;5116934;27;20035;-80
2022/05/06 04:18:18;;;;;;;27.50;12.32;;;10.20;93.50;;;;;;5116673;27;20045;-82
2022/05/06 04:23:29;;;;;;;34.58;13.43;;;10.20;93.50;;;;;;5116965;27;20076;-82
2022/05/06 04:26:01;;;;;;;32.40;12.88;;;10.20;93.60;;;;;;5099689;27;20546;-80
2022/05/06 04:28:28;;;;;;;32.17;14.95;;;10.20;93.60;;;;;;5100003;27;20041;-82
2022/05/06 04:30:54;;;;;;;28.30;12.02;;;10.20;93.50;;;;;;5099418;27;20112;-78
2022/05/06 04:33:22;;;;;;;47.22;14.40;;;10.20;93.60;;;;;;5116667;27;20095;-77
2022/05/06 04:35:48;;;;;;;51.53;14.95;;;10.20;93.80;;;;;;5116473;27;20054;-79
2022/05/06 04:38:14;;;;;;;31.27;12.65;;;10.10;93.70;;;;;;5082601;27;20051;-84
2022/05/06 04:40:40;;;;;;;46.33;15.43;;;10.10;93.80;;;;;;5116544;27;20035;-84
2022/05/06 04:43:09;;;;;;;44.72;14.25;;;10.10;94.10;;;;;;5099625;27;20043;-82
2022/05/06 04:45:39;;;;;;;35.17;13.23;;;10.10;94.10;;;;;;5100214;27;20399;-79
2022/05/06 04:48:06;;;;;;;43.25;13.75;;;10.10;93.90;;;;;;5099372;27;20088;-79
2022/05/06 04:50:38;;;;;;;22.20;11.02;;;10.10;94.00;;;;;;5099461;27;20046;-78
2022/05/06 04:53:08;;;;;;;25.90;11.35;;;10.20;93.90;;;;;;5116092;27;20491;-82
2022/05/06 04:55:35;;;;;;;46.17;13.30;;;10.30;94.10;;;;;;5116101;27;20039;-80
2022/05/06 04:58:02;;;;;;;39.08;12.15;;;10.30;94.00;;;;;;5116127;28;20043;-79
2022/05/06 05:00:29;;;;;;;42.72;12.80;;;10.30;94.10;;;;;;5115975;27;20046;-81
2022/05/06 05:02:54;;;;;;;28.08;9.68;;;10.30;94.00;;;;;;5099242;27;20433;-80
2022/05/06 05:05:20;;;;;;;40.95;13.85;;;10.40;94.00;;;;;;5099243;27;20043;-79
2022/05/06 05:07:46;;;;;;;28.92;12.15;;;10.40;94.00;;;;;;5099133;27;20455;-82
2022/05/06 05:10:12;;;;;;;30.40;11.93;;;10.40;94.00;;;;;;5115766;27;20087;-79
2022/05/06 05:12:38;;;;;;;40.33;13.10;;;10.40;94.10;;;;;;5115860;27;20070;-82
2022/05/06 05:15:04;;;;;;;31.05;12.23;;;10.40;94.10;;;;;;5081988;27;20039;-77
2022/05/06 05:17:30;;;;;;;51.92;15.30;;;10.40;94.00;;;;;;5098772;27;20077;-79
2022/05/06 05:19:56;;;;;;;47.70;14.50;;;10.50;94.00;;;;;;5116014;27;20062;-84
2022/05/06 05:22:22;;;;;;;92.38;16.52;;;10.40;94.60;;;;;;5115923;27;20395;-80
2022/05/06 05:24:48;;;;;;;62.78;15.00;;;10.40;94.40;;;;;;5098664;27;20495;-81
2022/05/06 05:27:14;;;;;;;44.95;12.35;;;10.50;94.60;;;;;;5115801;28;20046;-77
2022/05/06 05:29:41;;;;;;;32.78;13.32;;;10.50;94.40;;;;;;5098682;28;20039;-79
2022/05/06 05:32:07;;;;;;;40.42;14.57;;;10.50;94.30;;;;;;5098678;28;20559;-81
2022/05/06 05:34:33;;;;;;;36.20;12.85;;;10.50;94.40;;;;;;5098643;28;20047;-80
2022/05/06 05:36:59;;;;;;;30.90;12.77;;;10.50;94.30;;;;;;5115353;28;20138;-82
2022/05/06 05:39:24;;;;;;;22.85;11.82;;;10.60;94.30;;;;;;5115625;27;20040;-81
2022/05/06 05:41:50;;;;;;;31.15;13.30;;;10.60;94.30;;;;;;5102998;27;20372;-84
2022/05/06 05:49:44;;;;;;;31.13;11.63;;;10.70;94.50;;;;;;5122296;27;20539;-81
2022/05/06 05:52:10;;;;;;;32.33;11.27;;;10.70;94.40;;;;;;5088397;27;20077;-80
2022/05/06 05:54:36;;;;;;;23.17;9.95;;;10.60;94.30;;;;;;5122207;27;20127;-78
2022/05/06 05:57:03;;;;;;;20.55;12.45;;;10.70;94.30;;;;;;5122524;27;20039;-79
2022/05/06 05:59:29;;;;;;;20.02;12.00;;;10.70;94.20;;;;;;5105151;27;20042;-82
2022/05/06 06:01:55;;;;;;;16.48;11.77;;;10.80;94.20;;;;;;5122477;27;20031;-79
2022/05/06 06:04:21;;;;;;;20.20;13.60;;;10.70;93.90;;;;;;5105318;27;20052;-78
2022/05/06 06:06:46;;;;;;;33.55;14.95;;;10.70;94.10;;;;;;5104983;27;20035;-78
2022/05/06 06:09:12;;;;;;;20.10;13.40;;;10.70;94.00;;;;;;5105049;27;20128;-79
2022/05/06 06:11:38;;;;;;;24.58;14.77;;;10.80;93.90;;;;;;5104964;27;20088;-81
2022/05/06 06:14:03;;;;;;;18.70;13.43;;;10.80;93.90;;;;;;5122072;27;20068;-81
2022/05/06 06:16:29;;;;;;;20.33;13.18;;;10.80;94.00;;;;;;5105006;27;20384;-81
2022/05/06 06:18:58;;;;;;;28.02;16.27;;;10.90;93.90;;;;;;5121994;27;20074;-80
2022/05/06 06:21:25;;;;;;;25.50;15.88;;;10.90;93.80;;;;;;5105602;27;20058;-78
2022/05/06 06:23:51;;;;;;;22.75;14.57;;;10.90;93.90;;;;;;5104845;27;20068;-79
2022/05/06 06:26:17;;;;;;;20.95;15.13;;;10.90;93.90;;;;;;5105215;27;20039;-78
2022/05/06 06:28:42;;;;;;;24.35;16.30;;;11.00;93.90;;;;;;5122206;27;20494;-77
2022/05/06 06:31:08;;;;;;;37.33;18.83;;;11.00;93.90;;;;;;5104706;27;20126;-80
2022/05/06 06:33:37;;;;;;;28.05;17.98;;;10.90;94.10;;;;;;5121832;27;20096;-80
2022/05/06 06:36:04;;;;;;;37.40;17.80;;;11.00;94.10;;;;;;5105083;27;20487;-80
2022/05/06 06:38:30;;;;;;;29.63;18.52;;;11.00;94.00;;;;;;5105029;27;20039;-79
2022/05/06 06:40:56;;;;;;;36.05;18.73;;;11.00;94.00;;;;;;5121676;27;20384;-80
2022/05/06 06:43:22;;;;;;;27.63;17.80;;;11.00;94.10;;;;;;5105036;27;20042;-81
2022/05/06 06:45:48;;;;;;;29.05;19.67;;;11.00;94.00;;;;;;5104696;27;20452;-80
2022/05/06 06:48:13;;;;;;;24.33;17.33;;;11.10;94.00;;;;;;5104783;27;20043;-80
2022/05/06 06:50:39;;;;;;;22.70;16.48;;;11.10;94.00;;;;;;5121588;27;20043;-83
2022/05/06 06:53:06;;;;;;;23.80;17.88;;;11.20;94.00;;;;;;5085920;27;20039;-82
2022/05/06 06:55:32;;;;;;;19.83;15.00;;;11.20;93.90;;;;;;5118431;27;20619;-80
2022/05/06 06:57:57;;;;;;;22.75;15.43;;;11.30;93.90;;;;;;5084747;27;20035;-82
2022/05/06 07:00:23;;;;;;;19.75;15.23;;;11.30;93.70;;;;;;5101284;27;20038;-83
2022/05/06 07:02:49;;;;;;;21.63;15.88;;;11.30;93.40;;;;;;5118605;27;20039;-84
2022/05/06 07:05:15;;;;;;;20.52;16.20;;;11.40;93.40;;;;;;5101366;27;20046;-82
2022/05/06 07:13:11;;;;;;;19.05;14.70;;;11.60;93.00;;;;;;5118066;27;20051;-80
2022/05/06 07:15:36;;;;;;;19.33;15.38;;;11.70;92.90;;;;;;5101011;27;20039;-79
2022/05/06 07:18:02;;;;;;;19.73;14.65;;;11.70;92.70;;;;;;5101019;27;20058;-77
2022/05/06 07:20:28;;;;;;;17.85;12.65;;;11.80;92.70;;;;;;5100791;27;20034;-77
2022/05/06 07:22:53;;;;;;;20.83;15.02;;;11.80;92.30;;;;;;5101070;27;20126;-83
2022/05/06 07:25:19;;;;;;;18.92;14.10;;;11.90;92.10;;;;;;5100964;27;20043;-80
2022/05/06 07:27:45;;;;;;;19.67;13.88;;;12.00;92.00;;;;;;5101171;27;20043;-80
2022/05/06 07:30:11;;;;;;;15.98;13.02;;;12.10;91.70;;;;;;5117703;27;20039;-81
2022/05/06 07:32:37;;;;;;;14.45;11.98;;;12.20;91.60;;;;;;5100962;27;20364;-82
2022/05/06 07:35:04;;;;;;;14.30;11.88;;;12.30;91.20;;;;;;5117632;27;20039;-80
2022/05/06 07:37:33;;;;;;;11.90;10.15;;;12.40;90.60;;;;;;5117258;27;20047;-81
2022/05/06 07:40:03;;;;;;;13.05;11.05;;;12.50;90.10;;;;;;5100908;27;20537;-78
2022/05/06 07:42:30;;;;;;;13.70;10.77;;;12.50;89.50;;;;;;5117900;27;20087;-80
2022/05/06 07:45:00;;;;;;;13.98;11.63;;;12.60;89.40;;;;;;5117767;27;20135;-83
2022/05/06 07:47:26;;;;;;;12.45;10.10;;;12.60;89.50;;;;;;5100451;27;20180;-80
2022/05/06 07:49:52;;;;;;;12.98;9.90;;;12.70;89.50;;;;;;5117584;27;20039;-81
2022/05/06 07:52:18;;;;;;;13.00;9.80;;;12.70;89.20;;;;;;5100397;27;20046;-82
2022/05/06 07:54:44;;;;;;;12.32;10.15;;;12.70;88.70;;;;;;5117201;27;20575;-82
2022/05/06 07:57:09;;;;;;;12.82;9.80;;;12.80;88.80;;;;;;5083484;27;20089;-81
2022/05/06 07:59:35;;;;;;;9.55;8.55;;;12.80;88.80;;;;;;5117146;27;20035;-83
2022/05/06 08:04:48;;;;;;;7.10;6.35;;;13.00;87.70;;;;;;5116585;27;20049;-81
2022/05/06 08:07:15;;;;;;;7.60;6.22;;;13.00;87.50;;;;;;5117355;27;20504;-79
2022/05/06 08:09:42;;;;;;;9.15;7.15;;;13.10;87.00;;;;;;5100163;27;20035;-79
2022/05/06 08:12:09;;;;;;;6.88;6.18;;;13.20;86.00;;;;;;5117065;27;20042;-78
2022/05/06 08:14:35;;;;;;;7.35;6.10;;;13.30;85.80;;;;;;5116890;27;20104;-79
2022/05/06 08:17:01;;;;;;;7.43;6.72;;;13.30;85.90;;;;;;5117090;27;20074;-82
2022/05/06 08:19:27;;;;;;;7.82;5.82;;;13.40;84.80;;;;;;5116736;27;20474;-80
2022/05/06 08:21:53;;;;;;;6.97;6.28;;;13.50;84.50;;;;;;5116774;27;20032;-80
2022/05/06 08:24:19;;;;;;;8.18;6.63;;;13.50;84.40;;;;;;5116653;27;20483;-81
2022/05/06 08:26:45;;;;;;;6.85;6.03;;;13.50;84.60;;;;;;5117097;27;20563;-80
2022/05/06 08:29:11;;;;;;;7.18;6.57;;;13.60;84.00;;;;;;5099774;27;20070;-78
2022/05/06 08:31:40;;;;;;;7.07;6.22;;;13.60;83.80;;;;;;5099734;27;20042;-79
2022/05/06 08:34:07;;;;;;;7.38;6.68;;;13.70;83.80;;;;;;5099864;27;20046;-82
2022/05/06 08:36:34;;;;;;;6.03;5.45;;;13.80;83.60;;;;;;5116502;27;20043;-81
2022/05/06 08:39:01;;;;;;;9.13;6.00;;;14.00;83.30;;;;;;5099543;27;20047;-81
2022/05/06 08:41:27;;;;;;;7.85;6.47;;;14.20;83.10;;;;;;5099373;27;20031;-81
2022/05/06 08:43:53;;;;;;;6.50;5.50;;;14.30;82.50;;;;;;5099282;27;20074;-82
2022/05/06 08:51:54;;;;;;;7.03;4.95;;;14.70;81.00;;;;;;5116290;27;20078;-81
2022/05/06 08:54:21;;;;;;;6.35;5.13;;;14.90;80.10;;;;;;5116195;27;20088;-80
2022/05/06 08:56:47;;;;;;;6.72;5.20;;;15.00;80.10;;;;;;5116141;27;20067;-81
2022/05/06 08:59:12;;;;;;;5.18;4.68;;;15.10;79.90;;;;;;5099070;27;20089;-81
2022/05/06 09:01:38;;;;;;;5.07;4.43;;;15.20;78.30;;;;;;5099429;27;20039;-80
2022/05/06 09:04:05;;;;;;;4.95;4.55;;;15.20;79.30;;;;;;5115998;27;20046;-80
2022/05/06 09:06:32;;;;;;;6.45;5.00;;;15.30;79.20;;;;;;5099301;27;20047;-83
2022/05/06 09:08:59;;;;;;;6.05;5.32;;;15.50;78.40;;;;;;5099053;27;20095;-81
2022/05/06 09:14:15;;;;;;;7.20;4.75;;;15.50;78.30;;;;;;5115837;27;20046;-80
2022/05/06 09:16:40;;;;;;;5.30;4.80;;;15.60;78.00;;;;;;5098365;27;20117;-82
2022/05/06 09:19:23;;;;;;;5.05;4.18;;;15.60;77.80;;;;;;5082285;27;20543;-80
2022/05/06 09:22:11;;;;;;;5.75;4.90;;;15.70;76.30;;;;;;5116087;27;20031;-80
2022/05/06 09:24:38;;;;;;;4.72;4.32;;;15.70;76.70;;;;;;5098965;28;20130;-81
2022/05/06 09:27:10;;;;;;;5.05;4.55;;;15.80;76.60;;;;;;5115572;27;20050;-81
2022/05/06 09:29:43;;;;;;;4.75;4.25;;;16.00;76.50;;;;;;5115847;27;20038;-80
2022/05/06 09:32:14;;;;;;;5.13;4.63;;;16.20;76.20;;;;;;5098905;27;20035;-81
2022/05/06 09:34:41;;;;;;;8.25;4.50;;;16.30;74.70;;;;;;5115784;28;20435;-81
2022/05/06 09:37:10;;;;;;;5.15;4.65;;;16.50;74.70;;;;;;5081592;27;20086;-80
2022/05/06 09:39:38;;;;;;;4.97;4.47;;;16.60;73.40;;;;;;5098705;27;20043;-81
2022/05/06 09:42:05;;;;;;;5.55;4.45;;;16.70;72.70;;;;;;5082006;28;20163;-81
2022/05/06 09:44:33;;;;;;;7.30;4.68;;;16.90;72.30;;;;;;5081656;28;20043;-82
2022/05/06 09:47:12;;;;;;;6.65;5.75;;;17.00;71.40;;;;;;5115755;28;20403;-80
2022/05/06 09:49:49;;;;;;;6.43;5.28;;;17.20;70.70;;;;;;5082287;28;20050;-81
2022/05/06 09:52:16;;;;;;;6.50;5.55;;;17.50;71.10;;;;;;5115663;28;20050;-79
2022/05/06 09:54:43;;;;;;;6.03;5.43;;;17.60;70.00;;;;;;5081678;28;20471;-80
2022/05/06 09:57:13;;;;;;;9.27;5.53;;;17.80;68.90;;;;;;5098619;28;20407;-82
2022/05/06 09:59:40;;;;;;;7.40;6.22;;;18.00;68.70;;;;;;5115563;28;20247;-79
2022/05/06 10:02:07;;;;;;;9.55;7.40;;;18.10;67.80;;;;;;5115619;28;20046;-81
2022/05/06 10:04:37;;;;;;;7.13;6.25;;;18.40;67.10;;;;;;5098573;28;20050;-79
2022/05/06 10:07:06;;;;;;;8.80;7.30;;;18.40;67.20;;;;;;5098713;28;20257;-80
2022/05/06 10:09:39;;;;;;;9.35;8.35;;;18.30;65.00;;;;;;5115150;27;20043;-80
2022/05/06 10:12:08;;;;;;;8.63;7.78;;;18.20;65.80;;;;;;5115399;28;20035;-81
2022/05/06 10:14:35;;;;;;;9.23;6.57;;;18.00;66.10;;;;;;5115112;28;20574;-81
2022/05/06 10:17:00;;;;;;;7.95;7.20;;;18.00;66.70;;;;;;5115604;28;20031;-81
2022/05/06 10:19:44;;;;;;;11.38;7.75;;;17.80;65.50;;;;;;5115233;27;20046;-82
2022/05/06 10:22:10;;;;;;;8.03;6.53;;;17.90;66.00;;;;;;5098579;28;20038;-82
2022/05/06 10:24:41;;;;;;;8.45;7.65;;;18.00;65.80;;;;;;5115163;28;20126;-82
2022/05/06 10:33:14;;;;;;;7.55;6.80;;;18.50;65.40;;;;;;5118858;27;20111;-82
2022/05/06 10:35:42;;;;;;;9.48;7.47;;;18.60;64.80;;;;;;5118909;27;20038;-81
2022/05/06 10:38:25;;;;;;;8.13;7.32;;;18.70;64.60;;;;;;5115378;28;20051;-82
2022/05/06 10:40:57;;;;;;;8.15;7.35;;;18.90;64.40;;;;;;5098433;28;20039;-80
2022/05/06 10:43:41;;;;;;;7.90;6.82;;;19.00;63.50;;;;;;5115524;28;20035;-80
2022/05/06 10:46:07;;;;;;;8.63;7.75;;;19.20;62.50;;;;;;5115599;28;20039;-82
2022/05/06 10:48:33;;;;;;;6.55;5.88;;;19.30;61.80;;;;;;5115311;28;20483;-82
2022/05/06 10:51:21;;;;;;;6.68;5.93;;;19.30;60.70;;;;;;5115125;28;20134;-84
2022/05/06 10:53:47;;;;;;;6.72;5.20;;;19.10;60.70;;;;;;5115157;28;20039;-80
2022/05/06 10:56:14;;;;;;;5.88;4.85;;;19.00;61.10;;;;;;5115005;28;20040;-83
2022/05/06 10:58:40;;;;;;;7.55;6.70;;;19.00;61.00;;;;;;5081582;28;20084;-79
2022/05/06 11:01:14;;;;;;;6.53;5.82;;;19.10;61.50;;;;;;5115119;28;20039;-80
2022/05/06 11:03:51;;;;;;;8.55;5.57;;;19.30;61.60;;;;;;5097898;28;20051;-81
2022/05/06 11:06:23;;;;;;;6.32;4.35;;;19.40;61.50;;;;;;5097956;28;20031;-82
2022/05/06 11:08:49;;;;;;;4.55;3.20;;;19.40;59.30;;;;;;5114833;28;20031;-82
2022/05/06 11:11:19;;;;;;;5.25;3.72;;;19.40;58.60;;;;;;5114735;28;20134;-80
2022/05/06 11:13:47;;;;;;;4.53;4.07;;;19.20;57.50;;;;;;5114615;28;20051;-81
2022/05/06 11:16:14;;;;;;;9.25;5.38;;;19.10;57.00;;;;;;5097996;28;20491;-80
2022/05/06 11:18:44;;;;;;;6.68;5.40;;;19.00;58.40;;;;;;5115033;28;20451;-81
2022/05/06 11:21:31;;;;;;;5.68;5.00;;;19.00;58.70;;;;;;5114518;28;20507;-83
2022/05/06 11:23:57;;;;;;;8.73;5.30;;;19.00;59.50;;;;;;5114506;28;20149;-82
2022/05/06 11:26:31;;;;;;;9.38;5.20;;;19.00;59.00;;;;;;5114646;28;20134;-82
2022/05/06 11:29:04;;;;;;;6.47;5.32;;;19.00;58.80;;;;;;5097862;28;20044;-80
2022/05/06 11:31:30;;;;;;;7.75;5.20;;;19.20;58.40;;;;;;5080511;28;20035;-81
2022/05/06 11:34:08;;;;;;;9.50;5.50;;;19.40;58.60;;;;;;5114236;28;20039;-81
2022/05/06 11:36:34;;;;;;;8.35;6.78;;;19.50;58.60;;;;;;5114839;27;20050;-82
2022/05/06 11:39:11;;;;;;;10.13;6.90;;;19.60;57.60;;;;;;5099732;27;20491;-81
2022/05/06 11:41:36;;;;;;;10.18;6.95;;;19.60;58.20;;;;;;5100511;27;20035;-81
2022/05/06 11:44:04;;;;;;;8.77;7.30;;;19.60;58.60;;;;;;5117579;27;20108;-83
2022/05/06 11:49:24;;;;;;;10.88;7.22;;;19.70;59.60;;;;;;5117372;27;20053;-81
2022/05/06 11:51:52;;;;;;;8.70;7.63;;;19.80;59.10;;;;;;5117546;27;20039;-82
2022/05/06 11:54:18;;;;;;;12.45;8.10;;;19.90;59.10;;;;;;5100313;27;20047;-80
2022/05/06 11:56:44;;;;;;;10.35;8.45;;;19.90;59.20;;;;;;5100418;27;20092;-81
2022/05/06 11:59:11;;;;;;;11.80;8.45;;;19.90;59.50;;;;;;5083608;27;20127;-80
2022/05/06 12:01:38;;;;;;;10.18;8.18;;;19.80;59.30;;;;;;5100319;27;20071;-80
2022/05/06 12:04:09;;;;;;;8.88;7.57;;;19.80;59.20;;;;;;5083569;27;20057;-80
2022/05/06 12:06:38;;;;;;;9.13;7.78;;;19.90;59.10;;;;;;5117093;27;20046;-82
2022/05/06 12:09:10;;;;;;;10.05;8.52;;;19.60;59.80;;;;;;5117054;27;20067;-82
2022/05/06 12:11:36;;;;;;;10.30;9.20;;;19.90;59.30;;;;;;5100044;27;20042;-81
2022/05/06 12:14:07;;;;;;;10.85;8.05;;;20.10;59.10;;;;;;5099942;27;20046;-79
2022/05/06 12:16:33;;;;;;;12.02;8.65;;;20.40;57.90;;;;;;5066768;27;20042;-83
2022/05/06 12:18:58;;;;;;;10.80;8.52;;;20.60;57.30;;;;;;5082908;27;20043;-80
2022/05/06 12:21:26;;;;;;;10.48;9.32;;;20.90;55.40;;;;;;5116910;27;20063;-82
2022/05/06 12:23:58;;;;;;;13.32;9.60;;;21.20;55.30;;;;;;5117008;27;20038;-81
2022/05/06 12:26:55;;;;;;;13.07;8.90;;;21.40;55.30;;;;;;5117090;27;20452;-81
2022/05/06 12:29:21;;;;;;;11.10;9.88;;;21.60;53.40;;;;;;5098646;27;20104;-82
2022/05/06 12:31:48;;;;;;;11.57;10.07;;;21.70;53.70;;;;;;5116924;27;20057;-80
2022/05/06 12:34:13;;;;;;;12.07;10.77;;;21.80;54.10;;;;;;5099587;27;20058;-80
2022/05/06 12:36:39;;;;;;;14.35;12.10;;;21.90;54.10;;;;;;5099584;27;20475;-79
2022/05/06 12:39:22;;;;;;;14.93;12.43;;;21.80;54.30;;;;;;5082767;27;20043;-80
2022/05/06 12:41:49;;;;;;;11.60;10.38;;;21.90;53.80;;;;;;5116587;27;20389;-81
2022/05/06 12:44:24;;;;;;;13.07;11.32;;;21.70;53.80;;;;;;5099680;27;20046;-82
2022/05/06 12:46:51;;;;;;;11.48;10.18;;;21.70;54.30;;;;;;5116195;27;20039;-82
2022/05/06 12:52:04;;;;;;;14.70;12.05;;;21.60;53.90;;;;;;5116612;27;20502;-82
2022/05/06 12:54:31;;;;;;;11.35;9.88;;;21.80;52.10;;;;;;5134195;27;20039;-81
2022/05/06 12:56:57;;;;;;;13.10;9.52;;;21.90;53.60;;;;;;5117200;27;20038;-81
2022/05/06 12:59:23;;;;;;;12.10;9.73;;;22.00;52.70;;;;;;5099636;27;20035;-85
2022/05/06 13:01:50;;;;;;;10.32;8.55;;;22.10;51.20;;;;;;5099317;27;20068;-80
2022/05/06 13:04:16;;;;;;;12.48;11.20;;;21.90;50.90;;;;;;5116129;27;20039;-80
2022/05/06 13:06:42;;;;;;;12.98;9.38;;;21.70;52.10;;;;;;5082122;27;20035;-81
2022/05/06 13:09:08;;;;;;;13.13;9.00;;;21.50;51.80;;;;;;5099195;27;20391;-79
2022/05/06 13:11:34;;;;;;;13.63;9.70;;;21.40;52.70;;;;;;5116069;27;20066;-81
2022/05/06 13:14:00;;;;;;;10.90;9.75;;;21.50;52.80;;;;;;5115722;27;20047;-81
2022/05/06 13:16:27;;;;;;;13.07;10.98;;;21.70;52.80;;;;;;5099266;27;20035;-80
2022/05/06 13:18:53;;;;;;;11.65;8.70;;;21.90;52.20;;;;;;5082167;27;20027;-83